sensor_id;sensor_type;location;lat;lon;timestamp;pressure;altitude;pressure_sealevel;temperature;humidity
27685;BME280;46113;50.130;8.526;2022-11-20T05:15:19;99575.25;;;7.27;43.41
27685;BME280;46113;50.130;8.526;2022-11-20T05:17:47;99578.84;;;7.01;43.57
27685;BME280;46113;50.130;8.526;2022-11-20T05:20:14;99578.19;;;7.20;43.67
27685;BME280;46113;50.130;8.526;2022-11-20T05:22:41;99582.31;;;7.25;43.54
27685;BME280;46113;50.130;8.526;2022-11-20T05:25:07;99586.38;;;7.12;43.92
27685;BME280;46113;50.130;8.526;2022-11-20T05:27:34;99588.31;;;7.07;43.50
27685;BME280;46113;50.130;8.526;2022-11-20T05:30:00;99573.66;;;7.23;43.35
27685;BME280;46113;50.130;8.526;2022-11-20T05:32:27;99580.69;;;6.99;44.01
27685;BME280;46113;50.130;8.526;2022-11-20T05:34:53;99576.34;;;7.22;43.98
27685;BME280;46113;50.130;8.526;2022-11-20T05:37:19;99590.22;;;7.25;43.88
27685;BME280;46113;50.130;8.526;2022-11-20T05:39:46;99574.66;;;7.43;43.65
27685;BME280;46113;50.130;8.526;2022-11-20T05:42:12;99579.28;;;7.36;43.65
27685;BME280;46113;50.130;8.526;2022-11-20T05:45:02;99589.53;;;7.20;43.80
27685;BME280;46113;50.130;8.526;2022-11-20T05:47:33;99575.97;;;7.31;43.40
27685;BME280;46113;50.130;8.526;2022-11-20T05:50:00;99571.81;;;7.25;43.62
27685;BME280;46113;50.130;8.526;2022-11-20T05:52:30;99577.38;;;7.17;43.77
27685;BME280;46113;50.130;8.526;2022-11-20T05:54:57;99572.47;;;7.30;44.01
27685;BME280;46113;50.130;8.526;2022-11-20T05:57:23;99571.63;;;7.08;43.97
27685;BME280;46113;50.130;8.526;2022-11-20T05:59:50;99562.16;;;7.26;43.81
27685;BME280;46113;50.130;8.526;2022-11-20T06:02:16;99572.25;;;7.37;43.35
27685;BME280;46113;50.130;8.526;2022-11-20T06:04:43;99561.47;;;7.43;43.47
27685;BME280;46113;50.130;8.526;2022-11-20T06:07:10;99569.31;;;7.22;43.70
27685;BME280;46113;50.130;8.526;2022-11-20T06:09:36;99576.53;;;7.39;43.55
27685;BME280;46113;50.130;8.526;2022-11-20T06:12:03;99573.47;;;7.50;43.24
27685;BME280;46113;50.130;8.526;2022-11-20T06:14:29;99572.94;;;7.42;43.36
27685;BME280;46113;50.130;8.526;2022-11-20T06:16:56;99577.75;;;7.53;43.51
27685;BME280;46113;50.130;8.526;2022-11-20T06:19:22;99578.38;;;7.60;43.19
27685;BME280;46113;50.130;8.526;2022-11-20T06:21:49;99573.03;;;7.39;43.83
27685;BME280;46113;50.130;8.526;2022-11-20T06:24:17;99566.06;;;7.60;43.78
27685;BME280;46113;50.130;8.526;2022-11-20T06:26:44;99560.34;;;7.71;43.17
27685;BME280;46113;50.130;8.526;2022-11-20T06:29:10;99573.78;;;7.65;43.34
27685;BME280;46113;50.130;8.526;2022-11-20T06:31:37;99579.03;;;7.65;43.37
27685;BME280;46113;50.130;8.526;2022-11-20T06:34:05;99562.50;;;7.83;43.15
27685;BME280;46113;50.130;8.526;2022-11-20T06:36:32;99569.56;;;7.81;43.31
27685;BME280;46113;50.130;8.526;2022-11-20T06:39:00;99577.72;;;7.97;42.89
27685;BME280;46113;50.130;8.526;2022-11-20T06:41:26;99578.44;;;8.01;43.18
27685;BME280;46113;50.130;8.526;2022-11-20T06:43:54;99563.66;;;7.97;43.10
27685;BME280;46113;50.130;8.526;2022-11-20T06:46:21;99557.03;;;8.09;42.62
27685;BME280;46113;50.130;8.526;2022-11-20T06:48:48;99558.00;;;7.86;42.98
27685;BME280;46113;50.130;8.526;2022-11-20T06:51:15;99566.75;;;7.65;43.45
27685;BME280;46113;50.130;8.526;2022-11-20T06:53:42;99557.81;;;7.90;43.33
27685;BME280;46113;50.130;8.526;2022-11-20T06:56:08;99569.09;;;7.94;43.63
27685;BME280;46113;50.130;8.526;2022-11-20T06:58:35;99566.44;;;7.73;43.35
27685;BME280;46113;50.130;8.526;2022-11-20T07:01:10;99561.44;;;8.08;43.20
27685;BME280;46113;50.130;8.526;2022-11-20T07:03:37;99556.97;;;8.10;42.86
27685;BME280;46113;50.130;8.526;2022-11-20T07:06:04;99571.84;;;7.91;43.00
27685;BME280;46113;50.130;8.526;2022-11-20T07:08:32;99577.38;;;7.84;43.74
27685;BME280;46113;50.130;8.526;2022-11-20T07:11:00;99573.03;;;8.04;43.42
27685;BME280;46113;50.130;8.526;2022-11-20T07:13:27;99581.72;;;8.06;43.61
27685;BME280;46113;50.130;8.526;2022-11-20T07:15:54;99581.94;;;7.58;44.20
27685;BME280;46113;50.130;8.526;2022-11-20T07:18:21;99582.22;;;7.73;43.91
27685;BME280;46113;50.130;8.526;2022-11-20T07:20:48;99585.03;;;7.68;43.92
27685;BME280;46113;50.130;8.526;2022-11-20T07:23:14;99585.53;;;7.78;43.80
27685;BME280;46113;50.130;8.526;2022-11-20T07:25:41;99586.50;;;6.83;45.68
27685;BME280;46113;50.130;8.526;2022-11-20T07:28:07;99593.75;;;7.00;45.22
27685;BME280;46113;50.130;8.526;2022-11-20T07:30:34;99578.34;;;6.91;45.24
27685;BME280;46113;50.130;8.526;2022-11-20T07:33:00;99577.13;;;7.00;45.30
27685;BME280;46113;50.130;8.526;2022-11-20T07:35:27;99568.75;;;7.36;44.69
27685;BME280;46113;50.130;8.526;2022-11-20T07:37:54;99572.84;;;7.66;44.20
27685;BME280;46113;50.130;8.526;2022-11-20T07:40:20;99575.97;;;7.76;44.61
27685;BME280;46113;50.130;8.526;2022-11-20T07:42:51;99575.78;;;7.80;44.43
27685;BME280;46113;50.130;8.526;2022-11-20T07:45:20;99582.09;;;7.97;44.45
27685;BME280;46113;50.130;8.526;2022-11-20T07:47:46;99582.38;;;8.11;44.00
27685;BME280;46113;50.130;8.526;2022-11-20T07:50:14;99584.63;;;8.00;43.85
27685;BME280;46113;50.130;8.526;2022-11-20T07:52:40;99588.19;;;7.99;44.10
27685;BME280;46113;50.130;8.526;2022-11-20T07:55:08;99585.22;;;8.07;43.92
27685;BME280;46113;50.130;8.526;2022-11-20T07:57:35;99595.72;;;8.08;43.87
27685;BME280;46113;50.130;8.526;2022-11-20T08:00:03;99603.22;;;8.18;44.04
27685;BME280;46113;50.130;8.526;2022-11-20T08:02:38;99597.47;;;8.08;43.86
27685;BME280;46113;50.130;8.526;2022-11-20T08:05:06;99607.56;;;8.19;44.30
27685;BME280;46113;50.130;8.526;2022-11-20T08:07:41;99603.47;;;8.11;43.78
27685;BME280;46113;50.130;8.526;2022-11-20T08:10:10;99601.78;;;7.88;44.46
27685;BME280;46113;50.130;8.526;2022-11-20T08:12:43;99599.81;;;7.93;44.18
27685;BME280;46113;50.130;8.526;2022-11-20T08:15:29;99607.63;;;7.96;44.23
27685;BME280;46113;50.130;8.526;2022-11-20T08:18:10;99604.50;;;6.70;46.90
27685;BME280;46113;50.130;8.526;2022-11-20T08:21:01;99600.22;;;7.17;46.04
27685;BME280;46113;50.130;8.526;2022-11-20T08:23:27;99602.91;;;7.82;45.22
27685;BME280;46113;50.130;8.526;2022-11-20T08:25:55;99603.47;;;7.46;45.50
27685;BME280;46113;50.130;8.526;2022-11-20T08:28:21;99608.41;;;6.84;46.88
27685;BME280;46113;50.130;8.526;2022-11-20T08:30:49;99627.34;;;6.94;46.55
27685;BME280;46113;50.130;8.526;2022-11-20T08:33:19;99622.03;;;7.43;46.51
27685;BME280;46113;50.130;8.526;2022-11-20T08:35:46;99618.28;;;6.77;47.44
27685;BME280;46113;50.130;8.526;2022-11-20T08:38:13;99615.75;;;5.97;49.14
27685;BME280;46113;50.130;8.526;2022-11-20T08:40:41;99618.88;;;6.36;48.50
27685;BME280;46113;50.130;8.526;2022-11-20T08:43:29;99622.78;;;7.23;47.03
27685;BME280;46113;50.130;8.526;2022-11-20T08:45:56;99620.94;;;7.01;47.70
27685;BME280;46113;50.130;8.526;2022-11-20T08:48:23;99621.28;;;6.42;48.95
27685;BME280;46113;50.130;8.526;2022-11-20T08:50:51;99629.13;;;6.93;48.16
27685;BME280;46113;50.130;8.526;2022-11-20T08:53:19;99634.56;;;7.12;47.89
27685;BME280;46113;50.130;8.526;2022-11-20T08:55:48;99621.19;;;6.95;48.72
27685;BME280;46113;50.130;8.526;2022-11-20T08:58:17;99617.50;;;6.75;49.01
27685;BME280;46113;50.130;8.526;2022-11-20T09:00:47;99615.69;;;7.25;47.91
27685;BME280;46113;50.130;8.526;2022-11-20T09:03:13;99614.03;;;7.22;48.70
27685;BME280;46113;50.130;8.526;2022-11-20T09:05:40;99620.19;;;7.21;48.10
27685;BME280;46113;50.130;8.526;2022-11-20T09:08:08;99621.47;;;7.35;47.58
27685;BME280;46113;50.130;8.526;2022-11-20T09:10:35;99621.00;;;7.47;47.82
27685;BME280;46113;50.130;8.526;2022-11-20T09:13:02;99632.31;;;7.01;48.32
27685;BME280;46113;50.130;8.526;2022-11-20T09:15:29;99638.19;;;7.56;47.79
27685;BME280;46113;50.130;8.526;2022-11-20T09:17:58;99630.47;;;8.17;46.39
27685;BME280;46113;50.130;8.526;2022-11-20T09:20:26;99626.63;;;8.46;45.77
27685;BME280;46113;50.130;8.526;2022-11-20T09:22:56;99635.13;;;7.44;47.61
27685;BME280;46113;50.130;8.526;2022-11-20T09:25:23;99632.47;;;7.22;48.64
27685;BME280;46113;50.130;8.526;2022-11-20T09:27:57;99629.13;;;6.68;49.77
27685;BME280;46113;50.130;8.526;2022-11-20T09:30:24;99626.81;;;6.84;49.17
27685;BME280;46113;50.130;8.526;2022-11-20T09:32:51;99625.06;;;7.08;49.09
27685;BME280;46113;50.130;8.526;2022-11-20T09:35:19;99630.69;;;7.23;48.85
27685;BME280;46113;50.130;8.526;2022-11-20T09:37:50;99631.75;;;7.63;47.99
27685;BME280;46113;50.130;8.526;2022-11-20T09:40:23;99622.88;;;8.52;46.82
27685;BME280;46113;50.130;8.526;2022-11-20T09:43:03;99626.63;;;8.67;46.23
27685;BME280;46113;50.130;8.526;2022-11-20T09:54:52;99617.97;;;7.56;48.71
27685;BME280;46113;50.130;8.526;2022-11-20T09:57:22;99624.03;;;8.03;47.70
27685;BME280;46113;50.130;8.526;2022-11-20T10:00:00;99619.44;;;7.86;48.39
27685;BME280;46113;50.130;8.526;2022-11-20T10:02:56;99626.41;;;8.30;47.26
27685;BME280;46113;50.130;8.526;2022-11-20T10:05:28;99620.13;;;7.69;48.79
27685;BME280;46113;50.130;8.526;2022-11-20T10:08:15;99614.00;;;7.46;48.86
27685;BME280;46113;50.130;8.526;2022-11-20T10:10:49;99611.91;;;7.99;47.89
27685;BME280;46113;50.130;8.526;2022-11-20T10:16:34;99611.81;;;8.65;47.39
27685;BME280;46113;50.130;8.526;2022-11-20T10:25:09;99597.34;;;8.93;47.08
27685;BME280;46113;50.130;8.526;2022-11-20T10:30:42;99604.38;;;7.67;49.46
27685;BME280;46113;50.130;8.526;2022-11-20T10:33:16;99592.75;;;8.37;48.71
27685;BME280;46113;50.130;8.526;2022-11-20T10:38:51;99584.56;;;8.43;47.88
27685;BME280;46113;50.130;8.526;2022-11-20T10:41:24;99575.06;;;8.39;48.61
27685;BME280;46113;50.130;8.526;2022-11-20T10:44:17;99572.84;;;8.50;48.47
27685;BME280;46113;50.130;8.526;2022-11-20T10:47:08;99582.69;;;7.83;49.48
27685;BME280;46113;50.130;8.526;2022-11-20T10:49:36;99574.78;;;7.83;49.69
27685;BME280;46113;50.130;8.526;2022-11-20T10:52:05;99576.25;;;7.90;49.93
27685;BME280;46113;50.130;8.526;2022-11-20T10:54:44;99578.31;;;8.25;49.20
27685;BME280;46113;50.130;8.526;2022-11-20T10:59:59;99576.78;;;7.55;50.28
27685;BME280;46113;50.130;8.526;2022-11-20T11:05:20;99578.91;;;8.11;49.13
27685;BME280;46113;50.130;8.526;2022-11-20T11:07:50;99575.84;;;7.12;51.41
27685;BME280;46113;50.130;8.526;2022-11-20T11:10:38;99574.13;;;7.78;50.33
27685;BME280;46113;50.130;8.526;2022-11-20T11:13:07;99573.50;;;7.71;50.78
27685;BME280;46113;50.130;8.526;2022-11-20T11:15:45;99571.53;;;8.61;48.44
27685;BME280;46113;50.130;8.526;2022-11-20T11:18:11;99560.59;;;8.49;48.67
27685;BME280;46113;50.130;8.526;2022-11-20T11:20:52;99561.53;;;7.64;50.16
27685;BME280;46113;50.130;8.526;2022-11-20T11:26:01;99556.63;;;7.10;51.56
27685;BME280;46113;50.130;8.526;2022-11-20T11:28:28;99549.75;;;7.73;50.79
27685;BME280;46113;50.130;8.526;2022-11-20T11:30:55;99549.41;;;8.43;49.41
27685;BME280;46113;50.130;8.526;2022-11-20T11:35:58;99548.25;;;8.29;49.29
27685;BME280;46113;50.130;8.526;2022-11-20T11:38:36;99540.59;;;8.44;49.19
27685;BME280;46113;50.130;8.526;2022-11-20T11:41:04;99534.91;;;8.74;48.36
27685;BME280;46113;50.130;8.526;2022-11-20T11:43:33;99537.81;;;8.68;48.36
27685;BME280;46113;50.130;8.526;2022-11-20T11:46:32;99534.31;;;9.06;48.07
27685;BME280;46113;50.130;8.526;2022-11-20T11:51:58;99529.06;;;8.46;49.41
27685;BME280;46113;50.130;8.526;2022-11-20T11:54:37;99524.84;;;9.01;48.58
27685;BME280;46113;50.130;8.526;2022-11-20T11:57:41;99519.03;;;9.49;47.83
27685;BME280;46113;50.130;8.526;2022-11-20T12:00:16;99516.50;;;8.92;48.79
27685;BME280;46113;50.130;8.526;2022-11-20T12:05:20;99515.16;;;9.76;47.66
27685;BME280;46113;50.130;8.526;2022-11-20T12:10:22;99501.28;;;11.38;44.50
27685;BME280;46113;50.130;8.526;2022-11-20T12:12:58;99493.59;;;10.69;44.48
27685;BME280;46113;50.130;8.526;2022-11-20T12:15:32;99505.00;;;9.66;46.19
27685;BME280;46113;50.130;8.526;2022-11-20T12:17:59;99503.56;;;10.64;45.06
27685;BME280;46113;50.130;8.526;2022-11-20T12:20:35;99502.56;;;9.44;46.39
27685;BME280;46113;50.130;8.526;2022-11-20T12:25:57;99509.81;;;8.84;48.17
27685;BME280;46113;50.130;8.526;2022-11-20T12:28:34;99510.53;;;8.48;49.41
27685;BME280;46113;50.130;8.526;2022-11-20T12:34:08;99507.44;;;7.98;49.73
27685;BME280;46113;50.130;8.526;2022-11-20T12:36:52;99499.28;;;7.83;50.85
27685;BME280;46113;50.130;8.526;2022-11-20T12:39:41;99498.56;;;8.41;49.98
27685;BME280;46113;50.130;8.526;2022-11-20T12:45:41;99494.06;;;8.43;49.58
27685;BME280;46113;50.130;8.526;2022-11-20T12:48:24;99495.19;;;8.58;49.49
27685;BME280;46113;50.130;8.526;2022-11-20T13:01:44;99487.97;;;8.21;50.98
27685;BME280;46113;50.130;8.526;2022-11-20T13:04:50;99485.81;;;8.50;50.02
27685;BME280;46113;50.130;8.526;2022-11-20T13:07:25;99485.16;;;8.45;49.76
27685;BME280;46113;50.130;8.526;2022-11-20T13:09:56;99486.22;;;9.55;48.28
27685;BME280;46113;50.130;8.526;2022-11-20T13:12:29;99475.13;;;8.73;49.41
27685;BME280;46113;50.130;8.526;2022-11-20T13:15:05;99474.81;;;8.41;49.92
27685;BME280;46113;50.130;8.526;2022-11-20T13:17:44;99467.44;;;9.07;48.76
27685;BME280;46113;50.130;8.526;2022-11-20T13:20:15;99468.50;;;8.45;50.11
27685;BME280;46113;50.130;8.526;2022-11-20T13:27:53;99455.22;;;9.76;47.24
27685;BME280;46113;50.130;8.526;2022-11-20T13:30:22;99451.72;;;9.03;48.34
27685;BME280;46113;50.130;8.526;2022-11-20T13:32:58;99445.63;;;9.21;48.08
27685;BME280;46113;50.130;8.526;2022-11-20T13:35:35;99454.69;;;8.78;49.37
27685;BME280;46113;50.130;8.526;2022-11-20T13:38:11;99454.38;;;8.27;50.15
27685;BME280;46113;50.130;8.526;2022-11-20T13:40:55;99452.00;;;8.60;49.45
27685;BME280;46113;50.130;8.526;2022-11-20T13:43:37;99449.13;;;9.56;48.21
27685;BME280;46113;50.130;8.526;2022-11-20T13:46:06;99456.97;;;9.23;48.41
27685;BME280;46113;50.130;8.526;2022-11-20T13:48:41;99456.44;;;8.97;48.64
27685;BME280;46113;50.130;8.526;2022-11-20T13:56:50;99449.22;;;8.63;49.42
27685;BME280;46113;50.130;8.526;2022-11-20T14:02:13;99447.13;;;8.70;49.14
27685;BME280;46113;50.130;8.526;2022-11-20T14:04:45;99435.13;;;8.82;49.49
27685;BME280;46113;50.130;8.526;2022-11-20T14:07:13;99436.94;;;9.54;47.99
27685;BME280;46113;50.130;8.526;2022-11-20T14:09:54;99433.69;;;9.84;47.37
27685;BME280;46113;50.130;8.526;2022-11-20T14:12:30;99426.81;;;10.15;46.51
27685;BME280;46113;50.130;8.526;2022-11-20T14:14:57;99424.88;;;10.01;46.26
27685;BME280;46113;50.130;8.526;2022-11-20T14:17:33;99422.16;;;10.53;45.71
27685;BME280;46113;50.130;8.526;2022-11-20T14:20:03;99423.25;;;10.65;45.24
27685;BME280;46113;50.130;8.526;2022-11-20T14:22:31;99414.34;;;9.84;46.77
27685;BME280;46113;50.130;8.526;2022-11-20T14:27:27;99412.66;;;9.99;46.07
27685;BME280;46113;50.130;8.526;2022-11-20T14:29:54;99409.81;;;9.86;46.07
27685;BME280;46113;50.130;8.526;2022-11-20T14:32:25;99404.00;;;10.13;45.85
27685;BME280;46113;50.130;8.526;2022-11-20T14:35:06;99396.47;;;10.39;45.70
27685;BME280;46113;50.130;8.526;2022-11-20T14:37:37;99398.53;;;10.00;45.92
27685;BME280;46113;50.130;8.526;2022-11-20T14:40:22;99396.66;;;10.02;45.98
27685;BME280;46113;50.130;8.526;2022-11-20T14:42:50;99409.31;;;10.29;45.35
27685;BME280;46113;50.130;8.526;2022-11-20T14:45:16;99408.31;;;10.47;45.16
27685;BME280;46113;50.130;8.526;2022-11-20T14:47:44;99398.34;;;10.69;44.70
27685;BME280;46113;50.130;8.526;2022-11-20T14:50:25;99387.31;;;10.77;44.54
27685;BME280;46113;50.130;8.526;2022-11-20T14:52:57;99380.50;;;10.72;44.65
27685;BME280;46113;50.130;8.526;2022-11-20T14:55:34;99383.97;;;10.73;44.61
27685;BME280;46113;50.130;8.526;2022-11-20T14:58:03;99377.25;;;10.67;44.79
27685;BME280;46113;50.130;8.526;2022-11-20T15:00:34;99380.66;;;10.69;44.68
27685;BME280;46113;50.130;8.526;2022-11-20T15:03:01;99379.91;;;10.67;44.97
27685;BME280;46113;50.130;8.526;2022-11-20T15:05:48;99379.81;;;9.87;46.34
27685;BME280;46113;50.130;8.526;2022-11-20T15:08:16;99383.25;;;10.05;46.13
27685;BME280;46113;50.130;8.526;2022-11-20T15:10:48;99370.00;;;10.22;46.05
27685;BME280;46113;50.130;8.526;2022-11-20T15:13:20;99366.78;;;10.33;45.82
27685;BME280;46113;50.130;8.526;2022-11-20T15:15:52;99363.47;;;9.96;46.49
27685;BME280;46113;50.130;8.526;2022-11-20T15:18:23;99360.00;;;10.12;46.41
27685;BME280;46113;50.130;8.526;2022-11-20T15:20:51;99360.28;;;10.23;46.06
27685;BME280;46113;50.130;8.526;2022-11-20T15:23:19;99358.38;;;10.09;46.33
27685;BME280;46113;50.130;8.526;2022-11-20T15:25:46;99366.94;;;10.30;45.93
27685;BME280;46113;50.130;8.526;2022-11-20T15:28:20;99359.25;;;10.58;45.18
27685;BME280;46113;50.130;8.526;2022-11-20T15:30:48;99367.63;;;10.66;45.37
27685;BME280;46113;50.130;8.526;2022-11-20T15:33:16;99362.13;;;10.05;46.14
27685;BME280;46113;50.130;8.526;2022-11-20T15:35:43;99353.88;;;10.27;45.91
27685;BME280;46113;50.130;8.526;2022-11-20T15:38:10;99350.22;;;10.14;46.30
27685;BME280;46113;50.130;8.526;2022-11-20T15:40:36;99346.59;;;9.99;46.39
27685;BME280;46113;50.130;8.526;2022-11-20T15:43:03;99348.44;;;9.80;46.88
27685;BME280;46113;50.130;8.526;2022-11-20T15:45:57;99333.66;;;10.10;46.06
27685;BME280;46113;50.130;8.526;2022-11-20T15:48:27;99344.19;;;9.78;46.85
27685;BME280;46113;50.130;8.526;2022-11-20T15:51:02;99334.75;;;9.72;47.31
27685;BME280;46113;50.130;8.526;2022-11-20T15:53:30;99337.44;;;10.06;46.51
27685;BME280;46113;50.130;8.526;2022-11-20T15:55:56;99333.31;;;10.32;45.98
27685;BME280;46113;50.130;8.526;2022-11-20T15:58:23;99324.31;;;10.20;46.06
27685;BME280;46113;50.130;8.526;2022-11-20T16:00:50;99326.94;;;10.37;45.75
27685;BME280;46113;50.130;8.526;2022-11-20T16:03:17;99325.66;;;10.44;45.72
27685;BME280;46113;50.130;8.526;2022-11-20T16:05:45;99320.09;;;10.65;45.45
27685;BME280;46113;50.130;8.526;2022-11-20T16:08:12;99310.84;;;10.72;45.54
27685;BME280;46113;50.130;8.526;2022-11-20T16:10:39;99314.00;;;10.79;45.34
27685;BME280;46113;50.130;8.526;2022-11-20T16:13:14;99316.00;;;10.59;45.63
27685;BME280;46113;50.130;8.526;2022-11-20T16:16:06;99312.25;;;9.99;46.55
27685;BME280;46113;50.130;8.526;2022-11-20T16:18:35;99305.59;;;10.07;46.54
27685;BME280;46113;50.130;8.526;2022-11-20T16:21:02;99307.84;;;9.65;47.48
27685;BME280;46113;50.130;8.526;2022-11-20T16:23:28;99305.28;;;9.64;46.67
27685;BME280;46113;50.130;8.526;2022-11-20T16:25:55;99290.63;;;9.74;46.82
27685;BME280;46113;50.130;8.526;2022-11-20T16:28:21;99284.88;;;10.16;46.31
27685;BME280;46113;50.130;8.526;2022-11-20T16:30:48;99287.84;;;10.42;46.02
27685;BME280;46113;50.130;8.526;2022-11-20T16:33:16;99279.25;;;10.38;45.95
27685;BME280;46113;50.130;8.526;2022-11-20T16:35:45;99275.69;;;10.23;46.41
27685;BME280;46113;50.130;8.526;2022-11-20T16:38:12;99270.91;;;9.98;46.54
27685;BME280;46113;50.130;8.526;2022-11-20T16:40:40;99269.03;;;10.00;46.78
27685;BME280;46113;50.130;8.526;2022-11-20T16:43:10;99264.38;;;10.52;45.68
27685;BME280;46113;50.130;8.526;2022-11-20T16:45:41;99255.94;;;10.61;45.78
27685;BME280;46113;50.130;8.526;2022-11-20T16:48:11;99260.28;;;10.62;45.79
27685;BME280;46113;50.130;8.526;2022-11-20T16:51:07;99265.22;;;10.52;45.63
27685;BME280;46113;50.130;8.526;2022-11-20T16:53:34;99276.38;;;10.27;46.19
27685;BME280;46113;50.130;8.526;2022-11-20T16:56:22;99282.16;;;10.33;46.50
27685;BME280;46113;50.130;8.526;2022-11-20T16:58:49;99262.13;;;10.60;46.25
27685;BME280;46113;50.130;8.526;2022-11-20T17:01:42;99256.41;;;10.68;45.96
27685;BME280;46113;50.130;8.526;2022-11-20T17:04:13;99249.09;;;10.57;46.30
27685;BME280;46113;50.130;8.526;2022-11-20T17:06:42;99244.63;;;10.73;45.88
27685;BME280;46113;50.130;8.526;2022-11-20T17:09:10;99254.00;;;9.84;47.81
27685;BME280;46113;50.130;8.526;2022-11-20T17:11:36;99251.63;;;9.79;48.17
27685;BME280;46113;50.130;8.526;2022-11-20T17:14:04;99248.22;;;10.09;47.55
27685;BME280;46113;50.130;8.526;2022-11-20T17:16:34;99230.78;;;10.38;46.73
27685;BME280;46113;50.130;8.526;2022-11-20T17:19:02;99231.34;;;10.59;46.24
27685;BME280;46113;50.130;8.526;2022-11-20T17:21:31;99233.19;;;10.42;46.90
27685;BME280;46113;50.130;8.526;2022-11-20T17:24:03;99226.94;;;10.43;47.13
27685;BME280;46113;50.130;8.526;2022-11-20T17:26:30;99231.84;;;10.66;46.62
27685;BME280;46113;50.130;8.526;2022-11-20T17:29:05;99217.94;;;10.62;46.70
27685;BME280;46113;50.130;8.526;2022-11-20T17:31:33;99202.19;;;10.75;46.12
27685;BME280;46113;50.130;8.526;2022-11-20T17:34:01;99200.97;;;10.81;46.30
27685;BME280;46113;50.130;8.526;2022-11-20T17:36:28;99202.44;;;10.56;46.88
27685;BME280;46113;50.130;8.526;2022-11-20T17:38:55;99198.44;;;10.79;46.27
27685;BME280;46113;50.130;8.526;2022-11-20T17:41:23;99196.69;;;10.78;46.35
27685;BME280;46113;50.130;8.526;2022-11-20T17:43:56;99196.88;;;10.60;46.73
27685;BME280;46113;50.130;8.526;2022-11-20T17:46:25;99199.91;;;10.38;46.95
27685;BME280;46113;50.130;8.526;2022-11-20T17:48:52;99205.91;;;10.56;46.23
27685;BME280;46113;50.130;8.526;2022-11-20T17:51:21;99199.88;;;10.54;46.68
27685;BME280;46113;50.130;8.526;2022-11-20T17:53:54;99188.53;;;10.21;47.08
27685;BME280;46113;50.130;8.526;2022-11-20T17:56:21;99185.38;;;10.31;47.21
27685;BME280;46113;50.130;8.526;2022-11-20T17:59:08;99178.41;;;10.44;47.24
27685;BME280;46113;50.130;8.526;2022-11-20T18:01:36;99178.63;;;10.25;47.27
27685;BME280;46113;50.130;8.526;2022-11-20T18:04:02;99172.34;;;10.12;48.18
27685;BME280;46113;50.130;8.526;2022-11-20T18:06:30;99172.66;;;10.21;47.78
27685;BME280;46113;50.130;8.526;2022-11-20T18:08:58;99157.66;;;10.53;47.05
27685;BME280;46113;50.130;8.526;2022-11-20T18:11:27;99152.84;;;10.59;46.97
27685;BME280;46113;50.130;8.526;2022-11-20T18:13:56;99147.81;;;10.55;47.08
27685;BME280;46113;50.130;8.526;2022-11-20T18:16:47;99141.06;;;10.80;46.58
27685;BME280;46113;50.130;8.526;2022-11-20T18:19:19;99137.25;;;10.69;46.84
27685;BME280;46113;50.130;8.526;2022-11-20T18:21:45;99135.41;;;10.71;46.78
27685;BME280;46113;50.130;8.526;2022-11-20T18:24:12;99134.53;;;10.71;46.97
27685;BME280;46113;50.130;8.526;2022-11-20T18:26:39;99130.28;;;10.83;46.61
27685;BME280;46113;50.130;8.526;2022-11-20T18:29:17;99126.31;;;10.90;46.57
27685;BME280;46113;50.130;8.526;2022-11-20T18:31:43;99121.88;;;10.76;46.34
27685;BME280;46113;50.130;8.526;2022-11-20T18:34:10;99113.66;;;10.66;46.51
27685;BME280;46113;50.130;8.526;2022-11-20T18:36:39;99114.75;;;10.47;47.03
27685;BME280;46113;50.130;8.526;2022-11-20T18:39:09;99113.84;;;10.63;46.69
27685;BME280;46113;50.130;8.526;2022-11-20T18:41:36;99113.75;;;10.65;46.95
27685;BME280;46113;50.130;8.526;2022-11-20T18:44:24;99104.38;;;10.59;47.03
27685;BME280;46113;50.130;8.526;2022-11-20T18:47:13;99096.84;;;10.67;47.07
27685;BME280;46113;50.130;8.526;2022-11-20T18:49:47;99097.22;;;10.61;47.10
27685;BME280;46113;50.130;8.526;2022-11-20T18:52:25;99101.69;;;9.99;48.41
27685;BME280;46113;50.130;8.526;2022-11-20T18:54:53;99099.50;;;9.91;48.95
27685;BME280;46113;50.130;8.526;2022-11-20T18:57:22;99103.78;;;9.78;49.17
27685;BME280;46113;50.130;8.526;2022-11-20T18:59:49;99087.19;;;10.06;48.97
27685;BME280;46113;50.130;8.526;2022-11-20T19:02:17;99090.56;;;9.78;49.43
27685;BME280;46113;50.130;8.526;2022-11-20T19:04:45;99090.75;;;9.10;51.17
27685;BME280;46113;50.130;8.526;2022-11-20T19:07:12;99088.19;;;9.73;50.13
27685;BME280;46113;50.130;8.526;2022-11-20T19:09:41;99080.50;;;9.85;49.99
27685;BME280;46113;50.130;8.526;2022-11-20T19:12:09;99071.13;;;9.79;50.29
27685;BME280;46113;50.130;8.526;2022-11-20T19:14:36;99078.88;;;10.13;49.28
27685;BME280;46113;50.130;8.526;2022-11-20T19:17:04;99085.88;;;9.83;50.23
27685;BME280;46113;50.130;8.526;2022-11-20T19:19:35;99075.06;;;10.02;49.82
27685;BME280;46113;50.130;8.526;2022-11-20T19:22:05;99084.38;;;9.47;51.21
27685;BME280;46113;50.130;8.526;2022-11-20T19:24:33;99077.25;;;9.63;50.97
27685;BME280;46113;50.130;8.526;2022-11-20T19:27:12;99077.09;;;9.02;52.86
27685;BME280;46113;50.130;8.526;2022-11-20T19:29:39;99070.66;;;8.58;54.42
27685;BME280;46113;50.130;8.526;2022-11-20T19:32:05;99067.38;;;8.86;53.42
27685;BME280;46113;50.130;8.526;2022-11-20T19:34:32;99063.66;;;8.39;55.61
27685;BME280;46113;50.130;8.526;2022-11-20T19:36:59;99067.81;;;9.11;53.67
27685;BME280;46113;50.130;8.526;2022-11-20T19:39:26;99059.72;;;8.30;55.73
27685;BME280;46113;50.130;8.526;2022-11-20T19:41:53;99057.47;;;7.33;57.97
27685;BME280;46113;50.130;8.526;2022-11-20T19:44:21;99054.16;;;8.01;56.51
27685;BME280;46113;50.130;8.526;2022-11-20T19:46:48;99040.75;;;8.91;54.70
27685;BME280;46113;50.130;8.526;2022-11-20T19:49:16;99048.16;;;7.44;57.16
27685;BME280;46113;50.130;8.526;2022-11-20T19:51:47;99050.16;;;7.57;56.95
27685;BME280;46113;50.130;8.526;2022-11-20T19:54:14;99026.41;;;7.58;57.57
27685;BME280;46113;50.130;8.526;2022-11-20T19:56:42;99025.09;;;8.20;55.89
27685;BME280;46113;50.130;8.526;2022-11-20T19:59:09;99030.22;;;8.57;55.29
27685;BME280;46113;50.130;8.526;2022-11-20T20:01:35;99018.84;;;8.73;54.58